createdAt,value
2023-06-04T00:00:00.125Z,76.34
2023-06-04T00:02:27.213Z,75.53
2023-06-04T00:05:10.579Z,76.73
2023-06-04T00:07:58.253Z,75.86
2023-06-04T00:10:46.025Z,76.12
2023-06-04T00:13:33.051Z,75.74
2023-06-04T00:16:18.729Z,75.26
2023-06-04T00:18:46.065Z,75.03
2023-06-04T00:21:13.032Z,75.50
2023-06-04T00:23:40.073Z,75.58
2023-06-04T00:26:07.088Z,75.75
2023-06-04T00:28:33.971Z,75.32
2023-06-04T00:31:00.966Z,76.94
2023-06-04T00:33:27.890Z,75.52
2023-06-04T00:35:54.864Z,76.43
2023-06-04T00:38:21.784Z,76.58
2023-06-04T00:40:48.837Z,75.96
2023-06-04T00:43:15.849Z,74.96
2023-06-04T00:45:43.521Z,76.06
2023-06-04T00:48:10.989Z,74.84
2023-06-04T00:50:39.831Z,76.40
2023-06-04T00:53:07.283Z,77.04
2023-06-04T00:55:34.173Z,75.49
2023-06-04T00:58:02.360Z,76.73
2023-06-04T01:00:29.354Z,77.92
2023-06-04T01:03:00.039Z,76.83
2023-06-04T01:05:46.034Z,75.38
2023-06-04T01:08:30.733Z,76.91
2023-06-04T01:11:17.698Z,76.87
2023-06-04T01:14:05.517Z,76.76
2023-06-04T01:17:25.762Z,77.67
2023-06-04T01:20:14.384Z,77.21
2023-06-04T01:22:57.801Z,77.48
2023-06-04T01:25:34.981Z,79.02
2023-06-04T01:28:05.985Z,79.66
2023-06-04T01:30:35.852Z,79.69
2023-06-04T01:33:04.249Z,79.97
2023-06-04T01:35:34.239Z,79.25
2023-06-04T01:38:01.376Z,78.61
2023-06-04T01:40:28.575Z,78.43
2023-06-04T01:42:56.381Z,79.22
2023-06-04T01:45:24.594Z,78.89
2023-06-04T01:47:52.499Z,80.04
2023-06-04T01:50:20.051Z,79.69
2023-06-04T01:52:46.988Z,80.56
2023-06-04T01:55:18.524Z,80.22
2023-06-04T01:57:47.125Z,80.65
2023-06-04T02:00:15.700Z,79.79
2023-06-04T02:02:44.486Z,81.18
2023-06-04T02:05:12.250Z,80.61
2023-06-04T02:07:41.213Z,80.55
2023-06-04T02:10:10.342Z,80.45
2023-06-04T02:12:42.262Z,80.53
2023-06-04T02:15:12.336Z,80.73
2023-06-04T02:17:41.424Z,80.72
2023-06-04T02:20:11.259Z,81.86
2023-06-04T02:22:39.027Z,81.95
2023-06-04T02:25:07.189Z,82.28
2023-06-04T02:27:34.099Z,83.47
2023-06-04T02:30:01.226Z,82.72
2023-06-04T02:32:28.146Z,81.96
2023-06-04T02:34:55.868Z,82.01
2023-06-04T02:37:23.801Z,82.45
2023-06-04T02:39:50.750Z,81.41
2023-06-04T02:42:17.726Z,82.15
2023-06-04T02:44:44.685Z,81.98
2023-06-04T02:47:11.670Z,82.27
2023-06-04T02:49:38.663Z,82.45
2023-06-04T02:52:05.890Z,81.97
2023-06-04T02:54:32.823Z,83.36
2023-06-04T02:56:59.738Z,83.61
2023-06-04T02:59:27.284Z,83.01
2023-06-04T03:01:54.285Z,83.06
2023-06-04T03:04:22.031Z,84.07
2023-06-04T03:06:49.016Z,83.78
2023-06-04T03:09:16.185Z,83.40
2023-06-04T03:11:43.357Z,83.07
2023-06-04T03:14:10.558Z,83.28
2023-06-04T03:16:41.276Z,82.50
2023-06-04T03:19:08.491Z,83.80
2023-06-04T03:21:35.570Z,82.98
2023-06-04T03:24:02.643Z,84.06
2023-06-04T03:26:29.695Z,83.58
2023-06-04T03:28:56.713Z,82.68
2023-06-04T03:31:23.676Z,84.65
2023-06-04T03:33:50.756Z,83.49
2023-06-04T03:36:17.761Z,82.84
2023-06-04T03:38:47.320Z,82.48
2023-06-04T03:41:14.749Z,83.22
2023-06-04T03:43:41.691Z,82.74
2023-06-04T03:46:08.772Z,82.80
2023-06-04T03:48:35.906Z,83.75
2023-06-04T03:51:02.859Z,82.26
2023-06-04T03:53:29.771Z,81.93
2023-06-04T03:55:56.870Z,81.33
2023-06-04T03:58:25.306Z,82.11
2023-06-04T04:00:52.799Z,80.38
2023-06-04T04:03:19.881Z,80.32
2023-06-04T04:05:47.030Z,81.48
2023-06-04T04:08:17.685Z,81.55
2023-06-04T04:10:45.632Z,79.82
2023-06-04T04:13:12.568Z,79.50
2023-06-04T04:15:39.471Z,80.15
2023-06-04T04:18:09.612Z,80.52
2023-06-04T04:20:36.753Z,78.98
2023-06-04T04:23:03.709Z,78.94
2023-06-04T04:25:33.786Z,78.60
2023-06-04T04:28:01.868Z,78.85
2023-06-04T04:30:29.772Z,78.13
2023-06-04T04:32:57.826Z,77.51
2023-06-04T04:35:25.105Z,76.03
2023-06-04T04:37:52.055Z,76.57
2023-06-04T04:40:18.992Z,74.73
2023-06-04T04:42:46.069Z,70.61
2023-06-04T04:45:13.353Z,69.47
2023-06-04T04:47:40.435Z,67.39
2023-06-04T04:50:07.896Z,67.89
2023-06-04T04:52:34.881Z,63.47
2023-06-04T04:55:01.954Z,66.23
2023-06-04T04:57:28.921Z,66.33
2023-06-04T04:59:56.016Z,64.89
2023-06-04T05:02:23.009Z,63.80
2023-06-04T05:04:49.920Z,63.21
2023-06-04T05:07:17.153Z,60.02
2023-06-04T05:09:44.170Z,60.46
2023-06-04T05:12:11.401Z,58.23
2023-06-04T05:14:38.330Z,57.26
2023-06-04T05:17:05.471Z,57.73
2023-06-04T05:19:34.055Z,58.16
2023-06-04T05:22:04.332Z,58.33
2023-06-04T05:24:32.621Z,54.74
2023-06-04T05:26:59.773Z,56.26
2023-06-04T05:29:26.751Z,55.02
2023-06-04T05:31:53.798Z,58.08
2023-06-04T05:34:22.758Z,57.10
2023-06-04T05:36:49.674Z,55.42
2023-06-04T05:39:16.670Z,54.48
2023-06-04T05:41:44.523Z,52.38
2023-06-04T05:44:11.499Z,52.79
2023-06-04T05:46:38.492Z,55.01
2023-06-04T05:49:05.396Z,49.05
2023-06-04T05:51:32.658Z,48.04
2023-06-04T05:53:59.654Z,48.72
2023-06-04T05:56:27.623Z,45.77
2023-06-04T05:58:54.722Z,46.29
2023-06-04T06:01:21.696Z,44.41
2023-06-04T06:03:48.761Z,45.09
2023-06-04T06:06:15.944Z,44.41
2023-06-04T06:08:42.909Z,45.20
2023-06-04T06:11:11.442Z,46.34
2023-06-04T06:13:38.741Z,44.78
2023-06-04T06:16:06.109Z,46.52
2023-06-04T06:18:34.076Z,46.55
2023-06-04T06:21:01.095Z,45.38
2023-06-04T06:23:28.210Z,43.58
2023-06-04T06:25:55.340Z,42.89
2023-06-04T06:28:22.709Z,41.75
2023-06-04T06:30:49.830Z,41.66
2023-06-04T06:33:17.450Z,41.01
2023-06-04T06:35:47.751Z,39.53
2023-06-04T06:38:16.445Z,38.45
2023-06-04T06:40:45.618Z,36.82
2023-06-04T06:43:12.556Z,35.85
2023-06-04T06:45:39.509Z,35.94
2023-06-04T06:48:06.653Z,35.13
2023-06-04T06:50:36.819Z,36.54
2023-06-04T06:53:06.855Z,37.37
2023-06-04T06:55:34.079Z,36.98
2023-06-04T06:58:01.080Z,37.29
2023-06-04T07:00:31.821Z,37.54
2023-06-04T07:02:58.828Z,36.04
2023-06-04T07:05:25.855Z,38.04
2023-06-04T07:07:53.439Z,34.61
2023-06-04T07:10:20.471Z,35.44
2023-06-04T07:12:47.564Z,35.85
2023-06-04T07:15:14.516Z,36.47
2023-06-04T07:17:41.507Z,35.79
2023-06-04T07:20:10.611Z,35.29
2023-06-04T07:22:37.566Z,36.10
2023-06-04T07:25:04.846Z,36.12
2023-06-04T07:27:32.418Z,33.61
2023-06-04T07:29:59.425Z,35.41
2023-06-04T07:32:26.404Z,35.22
2023-06-04T07:34:53.353Z,34.68
2023-06-04T07:37:20.344Z,35.94
2023-06-04T07:39:47.441Z,33.52
2023-06-04T07:42:15.219Z,35.59
2023-06-04T07:44:43.120Z,34.65
2023-06-04T07:47:10.225Z,34.03
2023-06-04T07:49:44.484Z,32.78
2023-06-04T07:52:17.989Z,33.24
2023-06-04T07:54:45.035Z,33.52
2023-06-04T07:57:12.014Z,34.43
2023-06-04T07:59:38.955Z,34.05
2023-06-04T08:02:06.192Z,35.58
2023-06-04T08:04:33.539Z,36.02
2023-06-04T08:07:00.674Z,33.94
2023-06-04T08:09:27.643Z,33.80
2023-06-04T08:11:54.540Z,33.02
2023-06-04T08:14:23.613Z,34.39
2023-06-04T08:16:50.594Z,34.30
2023-06-04T08:19:17.568Z,34.46
2023-06-04T08:21:46.218Z,33.22
2023-06-04T08:24:13.232Z,32.15
2023-06-04T08:26:40.815Z,31.91
2023-06-04T08:29:08.101Z,31.18
2023-06-04T08:31:35.289Z,32.32
2023-06-04T08:34:02.448Z,31.18
2023-06-04T08:36:29.403Z,33.65
2023-06-04T08:38:56.726Z,31.01
2023-06-04T08:41:31.328Z,32.23
2023-06-04T08:44:01.137Z,33.04
2023-06-04T08:46:30.453Z,31.59
2023-06-04T08:49:04.648Z,31.13
2023-06-04T08:51:35.035Z,30.11
2023-06-04T08:54:02.907Z,31.39
2023-06-04T08:56:33.838Z,30.56
2023-06-04T08:59:03.994Z,29.53
2023-06-04T09:01:32.873Z,31.87
2023-06-04T09:04:02.672Z,32.83
2023-06-04T09:06:30.739Z,30.82
2023-06-04T09:09:01.886Z,30.04
2023-06-04T09:11:42.313Z,28.73
2023-06-04T09:14:10.908Z,31.33
2023-06-04T09:16:49.284Z,31.62
2023-06-04T09:19:17.195Z,31.13
2023-06-04T09:21:56.116Z,29.49
2023-06-04T09:24:41.391Z,29.73
2023-06-04T09:27:23.743Z,30.94
2023-06-04T09:29:55.582Z,32.29
2023-06-04T09:32:31.788Z,31.25
2023-06-04T09:35:14.130Z,32.33
2023-06-04T09:37:42.773Z,30.78
2023-06-04T09:40:11.115Z,30.28
2023-06-04T09:42:55.494Z,30.55
2023-06-04T09:45:30.454Z,31.55
2023-06-04T09:47:57.588Z,31.17
2023-06-04T09:50:37.543Z,30.73
2023-06-04T09:53:21.546Z,32.42
2023-06-04T09:55:58.359Z,28.79
2023-06-04T09:58:29.858Z,28.63
2023-06-04T10:01:01.358Z,29.49
2023-06-04T10:03:37.044Z,31.28
2023-06-04T10:06:06.343Z,31.09
2023-06-04T10:08:35.381Z,31.07
2023-06-04T10:11:04.094Z,30.66
2023-06-04T10:13:36.671Z,29.04
2023-06-04T10:16:04.814Z,29.12
2023-06-04T10:18:32.933Z,31.05
2023-06-04T10:21:01.700Z,28.94
2023-06-04T10:23:30.714Z,29.36
2023-06-04T10:25:58.316Z,29.02
2023-06-04T10:28:25.668Z,30.20
2023-06-04T10:30:52.791Z,28.22
2023-06-04T10:33:21.708Z,28.50
2023-06-04T10:35:48.899Z,29.36
2023-06-04T10:38:17.819Z,28.95
2023-06-04T10:40:45.347Z,29.72
2023-06-04T10:43:14.416Z,29.59
2023-06-04T10:45:42.245Z,28.78
2023-06-04T10:48:12.189Z,29.78
2023-06-04T10:50:53.795Z,30.11
2023-06-04T10:53:21.550Z,30.27
2023-06-04T10:55:50.236Z,30.08
2023-06-04T10:58:17.560Z,31.71
2023-06-04T11:00:51.130Z,31.41
2023-06-04T11:03:18.727Z,28.72
2023-06-04T11:05:49.014Z,28.64
2023-06-04T11:08:27.538Z,28.29
2023-06-04T11:10:54.527Z,31.13
2023-06-04T11:13:26.796Z,30.29
2023-06-04T11:15:53.837Z,30.31
2023-06-04T11:18:22.849Z,29.36
2023-06-04T11:20:59.432Z,30.17
2023-06-04T11:23:26.488Z,31.22
2023-06-04T11:25:56.926Z,29.03
2023-06-04T11:28:24.061Z,30.78
2023-06-04T11:31:04.830Z,30.47
2023-06-04T11:33:48.822Z,31.40
2023-06-04T11:36:30.051Z,30.90
2023-06-04T11:38:59.373Z,31.33
2023-06-04T11:41:29.282Z,32.30
2023-06-04T11:43:59.067Z,30.25
2023-06-04T11:46:27.436Z,28.46
2023-06-04T11:48:56.846Z,27.73
2023-06-04T11:51:24.723Z,28.49
2023-06-04T11:53:52.339Z,26.82
2023-06-04T11:56:20.163Z,32.37
2023-06-04T11:58:47.762Z,29.66
2023-06-04T12:01:15.469Z,27.85
2023-06-04T12:03:43.650Z,27.62
2023-06-04T12:06:12.826Z,28.54
2023-06-04T12:08:53.472Z,30.91
2023-06-04T12:11:39.214Z,29.91
2023-06-04T12:14:08.716Z,28.85
2023-06-04T12:16:36.049Z,28.10
2023-06-04T12:19:13.459Z,28.23
2023-06-04T12:21:41.214Z,28.59
2023-06-04T12:24:15.677Z,27.24
2023-06-04T12:26:48.260Z,30.14
2023-06-04T12:29:17.243Z,29.63
2023-06-04T12:31:46.932Z,29.76
2023-06-04T12:34:18.969Z,29.01
2023-06-04T12:36:45.978Z,28.22
2023-06-04T12:39:12.914Z,28.83
2023-06-04T12:41:56.620Z,28.62
2023-06-04T12:44:23.606Z,29.73
2023-06-04T12:47:15.852Z,31.56
2023-06-04T12:50:00.967Z,30.42
2023-06-04T12:53:02.271Z,29.79
2023-06-04T12:55:37.057Z,29.26
2023-06-04T12:58:04.060Z,29.79
2023-06-04T13:00:32.596Z,29.27
2023-06-04T13:03:12.716Z,32.16
2023-06-04T13:05:49.168Z,30.05
2023-06-04T13:08:47.680Z,30.22
2023-06-04T13:11:39.948Z,29.89
2023-06-04T13:14:07.287Z,29.94
2023-06-04T13:16:34.389Z,30.86
2023-06-04T13:19:01.417Z,29.94
2023-06-04T13:21:30.986Z,30.15
2023-06-04T13:23:59.144Z,30.82
2023-06-04T13:26:26.792Z,28.50
2023-06-04T13:28:53.955Z,30.82
2023-06-04T13:31:21.269Z,30.30
2023-06-04T13:33:48.371Z,28.99
2023-06-04T13:36:15.371Z,28.64
2023-06-04T13:38:43.537Z,29.88
2023-06-04T13:41:10.937Z,27.89
2023-06-04T13:43:37.967Z,29.24
2023-06-04T13:46:05.368Z,29.19
2023-06-04T13:48:32.723Z,29.44
2023-06-04T13:50:59.662Z,30.47
2023-06-04T13:53:26.565Z,29.50
2023-06-04T13:55:59.298Z,30.23
2023-06-04T13:58:27.201Z,29.96
2023-06-04T14:00:54.944Z,28.31
2023-06-04T14:03:22.091Z,29.08
2023-06-04T14:05:49.382Z,29.51
2023-06-04T14:08:16.318Z,30.56
2023-06-04T14:10:43.969Z,32.02
2023-06-04T14:13:11.302Z,29.05
2023-06-04T14:15:39.218Z,29.74
2023-06-04T14:18:06.491Z,29.72
2023-06-04T14:20:33.522Z,29.12
2023-06-04T14:23:01.907Z,30.02
2023-06-04T14:25:28.947Z,29.28
2023-06-04T14:27:55.892Z,29.47
2023-06-04T14:30:23.000Z,30.44
2023-06-04T14:32:50.026Z,28.62
2023-06-04T14:35:17.011Z,27.97
2023-06-04T14:37:44.152Z,28.83
2023-06-04T14:40:11.584Z,29.29
2023-06-04T14:42:38.573Z,29.01
2023-06-04T14:45:06.096Z,27.36
2023-06-04T14:47:33.130Z,28.12
2023-06-04T14:50:00.141Z,28.33
2023-06-04T14:52:27.108Z,29.69
2023-06-04T14:54:55.506Z,28.16
2023-06-04T14:57:22.743Z,29.48
2023-06-04T14:59:49.984Z,28.21
2023-06-04T15:02:21.151Z,29.63
2023-06-04T15:04:49.480Z,28.72
2023-06-04T15:07:16.519Z,29.20
2023-06-04T15:09:43.454Z,28.74
2023-06-04T15:12:10.624Z,28.07
2023-06-04T15:14:38.134Z,29.05
2023-06-04T15:17:05.100Z,29.10
2023-06-04T15:19:34.175Z,27.83
2023-06-04T15:22:01.292Z,29.55
2023-06-04T15:24:28.255Z,30.79
2023-06-04T15:26:55.263Z,30.03
2023-06-04T15:29:22.251Z,29.30
2023-06-04T15:31:49.577Z,28.16
2023-06-04T15:34:16.654Z,28.26
2023-06-04T15:36:44.938Z,27.69
2023-06-04T15:39:12.174Z,28.63
2023-06-04T15:41:39.678Z,29.19
2023-06-04T15:44:07.596Z,28.20
2023-06-04T15:46:34.809Z,29.30
2023-06-04T15:49:06.888Z,29.14
2023-06-04T15:51:33.904Z,29.56
2023-06-04T15:54:02.756Z,28.40
2023-06-04T15:56:30.126Z,29.13
2023-06-04T15:58:57.511Z,28.90
2023-06-04T16:01:24.705Z,29.05
2023-06-04T16:03:53.873Z,29.14
2023-06-04T16:06:21.397Z,29.02
2023-06-04T16:08:49.154Z,28.72
2023-06-04T16:11:16.926Z,28.70
2023-06-04T16:13:44.232Z,29.31
2023-06-04T16:16:11.573Z,29.15
2023-06-04T16:18:40.995Z,29.43
2023-06-04T16:21:07.960Z,30.02
2023-06-04T16:23:35.010Z,28.51
2023-06-04T16:26:02.348Z,30.12
2023-06-04T16:28:30.160Z,29.24
2023-06-04T16:30:58.499Z,29.38
2023-06-04T16:33:25.554Z,30.59
2023-06-04T16:35:52.571Z,30.53
2023-06-04T16:38:20.000Z,30.01
2023-06-04T16:40:46.982Z,30.72
2023-06-04T16:43:16.483Z,30.10
2023-06-04T16:45:43.731Z,30.28
2023-06-04T16:48:10.945Z,29.27
2023-06-04T16:50:37.975Z,29.88
2023-06-04T16:53:07.319Z,29.87
2023-06-04T16:55:37.243Z,31.47
2023-06-04T16:58:04.360Z,29.91
2023-06-04T17:00:32.143Z,30.93
2023-06-04T17:03:00.042Z,30.32
2023-06-04T17:05:27.091Z,30.06
2023-06-04T17:07:54.810Z,31.03
2023-06-04T17:10:30.035Z,31.63
2023-06-04T17:12:56.963Z,30.49
2023-06-04T17:15:23.918Z,31.31
2023-06-04T17:17:51.349Z,31.81
2023-06-04T17:20:18.677Z,31.76
2023-06-04T17:22:45.672Z,31.40
2023-06-04T17:25:12.706Z,31.60
2023-06-04T17:27:41.236Z,31.09
2023-06-04T17:30:08.722Z,31.92
2023-06-04T17:32:38.400Z,31.53
2023-06-04T17:35:05.962Z,31.49
2023-06-04T17:37:34.526Z,32.41
2023-06-04T17:40:01.553Z,32.70
2023-06-04T17:42:28.491Z,31.96
2023-06-04T17:44:55.458Z,31.87
2023-06-04T17:47:22.635Z,33.18
2023-06-04T17:49:50.264Z,33.01
2023-06-04T17:52:17.197Z,32.55
2023-06-04T17:54:44.136Z,32.68
2023-06-04T17:57:11.114Z,33.11
2023-06-04T17:59:38.167Z,33.65
2023-06-04T18:02:05.119Z,33.08
2023-06-04T18:04:32.114Z,33.45
2023-06-04T18:06:59.970Z,34.12
2023-06-04T18:09:27.005Z,34.23
2023-06-04T18:11:53.977Z,36.44
2023-06-04T18:14:20.925Z,35.59
2023-06-04T18:16:47.930Z,35.44
2023-06-04T18:19:17.535Z,38.79
2023-06-04T18:21:45.300Z,37.67
2023-06-04T18:24:12.232Z,37.47
2023-06-04T18:26:39.185Z,39.00
2023-06-04T18:29:06.352Z,39.78
2023-06-04T18:31:33.356Z,38.07
2023-06-04T18:34:03.037Z,39.15
2023-06-04T18:36:30.706Z,42.17
2023-06-04T18:38:58.140Z,41.72
2023-06-04T18:41:25.150Z,43.62
2023-06-04T18:43:52.200Z,42.14
2023-06-04T18:46:19.849Z,41.13
2023-06-04T18:48:48.340Z,41.54
2023-06-04T18:51:15.745Z,42.86
2023-06-04T18:53:42.720Z,44.18
2023-06-04T18:56:09.935Z,44.03
2023-06-04T18:58:36.960Z,43.84
2023-06-04T19:01:03.918Z,45.39
2023-06-04T19:03:30.932Z,46.77
2023-06-04T19:05:57.954Z,47.75
2023-06-04T19:08:25.386Z,48.30
2023-06-04T19:10:53.156Z,51.98
2023-06-04T19:13:20.294Z,47.74
2023-06-04T19:15:47.546Z,48.82
2023-06-04T19:18:14.540Z,50.16
2023-06-04T19:20:41.515Z,48.44
2023-06-04T19:23:08.446Z,48.31
2023-06-04T19:25:36.128Z,49.66
2023-06-04T19:28:06.741Z,52.38
2023-06-04T19:30:33.894Z,53.80
2023-06-04T19:33:00.962Z,54.20
2023-06-04T19:35:28.168Z,53.44
2023-06-04T19:37:55.103Z,53.63
2023-06-04T19:40:22.168Z,54.70
2023-06-04T19:42:49.224Z,55.52
2023-06-04T19:45:16.356Z,56.58
2023-06-04T19:47:43.342Z,57.35
2023-06-04T19:50:10.914Z,55.68
2023-06-04T19:52:38.107Z,55.94
2023-06-04T19:55:05.542Z,57.04
2023-06-04T19:57:32.679Z,56.86
2023-06-04T19:59:59.720Z,56.89
2023-06-04T20:02:26.670Z,56.88
2023-06-04T20:04:53.822Z,55.79
2023-06-04T20:07:21.338Z,58.26
2023-06-04T20:09:48.700Z,57.19
2023-06-04T20:12:17.469Z,56.71
2023-06-04T20:14:44.506Z,55.40
2023-06-04T20:17:11.665Z,58.74
2023-06-04T20:19:38.783Z,58.09
2023-06-04T20:22:08.765Z,57.26
2023-06-04T20:24:36.931Z,58.72
2023-06-04T20:27:03.957Z,57.34
2023-06-04T20:29:31.000Z,61.33
2023-06-04T20:31:58.051Z,58.41
2023-06-04T20:34:26.017Z,58.45
2023-06-04T20:36:56.443Z,58.97
2023-06-04T20:39:24.103Z,63.30
2023-06-04T20:41:51.112Z,59.66
2023-06-04T20:44:19.121Z,59.32
2023-06-04T20:46:46.361Z,59.08
2023-06-04T20:49:13.352Z,58.18
2023-06-04T20:51:41.387Z,60.52
2023-06-04T20:54:08.346Z,58.45
2023-06-04T20:56:35.293Z,60.43
2023-06-04T20:59:02.243Z,61.16
2023-06-04T21:01:29.253Z,61.09
2023-06-04T21:03:58.186Z,63.41
2023-06-04T21:06:26.896Z,64.20
2023-06-04T21:08:53.837Z,63.10
2023-06-04T21:11:20.801Z,63.07
2023-06-04T21:13:47.762Z,62.00
2023-06-04T21:16:14.725Z,60.69
2023-06-04T21:18:41.727Z,64.06
2023-06-04T21:21:09.049Z,64.36
2023-06-04T21:23:36.192Z,64.95
2023-06-04T21:26:03.249Z,67.95
2023-06-04T21:28:30.178Z,68.39
2023-06-04T21:30:57.129Z,67.19
2023-06-04T21:33:25.154Z,66.09
2023-06-04T21:35:52.165Z,66.33
2023-06-04T21:38:19.143Z,66.89
2023-06-04T21:40:46.151Z,66.49
2023-06-04T21:43:13.155Z,66.09
2023-06-04T21:45:40.747Z,67.17
2023-06-04T21:48:07.747Z,68.95
2023-06-04T21:50:34.730Z,70.45
2023-06-04T21:53:01.664Z,69.58
2023-06-04T21:55:28.588Z,69.92
2023-06-04T21:57:55.565Z,68.24
2023-06-04T22:00:22.705Z,68.85
2023-06-04T22:02:49.751Z,69.02
2023-06-04T22:05:16.801Z,68.28
2023-06-04T22:07:43.756Z,68.04
2023-06-04T22:10:10.811Z,69.46
2023-06-04T22:12:37.786Z,69.02
2023-06-04T22:15:05.060Z,69.12
2023-06-04T22:17:32.049Z,70.37
2023-06-04T22:19:59.047Z,70.30
2023-06-04T22:22:26.022Z,72.14
2023-06-04T22:24:53.043Z,71.40
2023-06-04T22:27:20.011Z,71.62
2023-06-04T22:29:46.973Z,70.49
2023-06-04T22:32:13.922Z,70.47
2023-06-04T22:34:40.889Z,73.63
2023-06-04T22:37:07.841Z,70.85
2023-06-04T22:39:34.775Z,71.40
2023-06-04T22:42:01.731Z,68.94
2023-06-04T22:44:28.659Z,72.06
2023-06-04T22:46:55.585Z,72.94
2023-06-04T22:49:22.771Z,72.32
2023-06-04T22:51:49.732Z,71.90
2023-06-04T22:54:16.727Z,72.22
2023-06-04T22:56:43.681Z,71.67
2023-06-04T22:59:10.791Z,70.24
2023-06-04T23:01:38.035Z,69.16
2023-06-04T23:04:05.292Z,66.14
2023-06-04T23:06:32.401Z,68.54
2023-06-04T23:09:02.077Z,69.80
2023-06-04T23:11:29.013Z,69.72
2023-06-04T23:13:56.004Z,69.07
2023-06-04T23:16:22.984Z,68.55
2023-06-04T23:18:49.929Z,69.42
2023-06-04T23:21:17.081Z,70.31
2023-06-04T23:23:43.978Z,70.42
2023-06-04T23:26:11.189Z,69.95
2023-06-04T23:28:38.113Z,72.13
2023-06-04T23:31:05.025Z,72.17
2023-06-04T23:33:32.003Z,71.60
2023-06-04T23:35:58.992Z,71.22
2023-06-04T23:38:25.933Z,71.33
2023-06-04T23:40:52.946Z,70.74
2023-06-04T23:43:19.886Z,72.83
2023-06-04T23:45:46.910Z,71.49
2023-06-04T23:48:13.957Z,71.64
2023-06-04T23:50:41.359Z,72.58
2023-06-04T23:53:08.258Z,72.54
2023-06-04T23:55:35.191Z,73.25
2023-06-04T23:58:02.384Z,73.27
